createdAt,value
2018-03-18T00:00:35.844Z,30.87
2018-03-18T00:03:03.986Z,34.47
2018-03-18T00:05:32.272Z,37.53
2018-03-18T00:08:04.541Z,32.67
2018-03-18T00:10:32.698Z,33.37
2018-03-18T00:13:05.189Z,27.07
2018-03-18T00:15:33.288Z,28.97
2018-03-18T00:18:01.564Z,30.73
2018-03-18T00:20:29.711Z,29.43
2018-03-18T00:22:57.805Z,27.30
2018-03-18T00:25:25.909Z,29.97
2018-03-18T00:27:54.031Z,31.23
2018-03-18T00:30:22.229Z,29.17
2018-03-18T00:32:50.351Z,30.73
2018-03-18T00:35:18.483Z,31.57
2018-03-18T00:37:46.571Z,30.13
2018-03-18T00:40:14.691Z,26.47
2018-03-18T00:42:42.835Z,28.47
2018-03-18T00:45:11.073Z,31.90
2018-03-18T00:47:39.398Z,30.63
2018-03-18T00:50:07.566Z,29.33
2018-03-18T00:52:35.787Z,28.57
2018-03-18T00:55:04.077Z,26.63
2018-03-18T00:57:35.697Z,23.63
2018-03-18T01:00:03.805Z,25.90
2018-03-18T01:02:31.940Z,26.40
2018-03-18T01:05:00.032Z,27.80
2018-03-18T01:07:28.237Z,30.23
2018-03-18T01:09:56.425Z,26.30
2018-03-18T01:12:24.546Z,26.07
2018-03-18T01:14:52.690Z,25.53
2018-03-18T01:17:20.848Z,25.53
2018-03-18T01:19:49.506Z,29.03
2018-03-18T01:22:17.682Z,29.83
2018-03-18T01:24:45.932Z,26.13
2018-03-18T01:27:14.795Z,26.13
2018-03-18T01:29:42.921Z,29.60
2018-03-18T01:32:11.026Z,27.33
2018-03-18T01:34:39.180Z,27.83
2018-03-18T01:37:07.304Z,27.70
2018-03-18T01:39:35.449Z,26.27
2018-03-18T01:42:03.704Z,26.13
2018-03-18T01:44:31.860Z,23.50
2018-03-18T01:47:00.048Z,24.80
2018-03-18T01:49:28.157Z,26.33
2018-03-18T01:51:56.262Z,27.33
2018-03-18T01:54:24.358Z,24.20
2018-03-18T01:56:54.063Z,25.07
2018-03-18T01:59:22.197Z,26.97
2018-03-18T02:01:50.330Z,22.77
2018-03-18T02:04:18.439Z,27.43
2018-03-18T02:06:47.313Z,25.43
2018-03-18T02:09:15.421Z,24.67
2018-03-18T02:11:43.568Z,25.13
2018-03-18T02:14:11.903Z,25.17
2018-03-18T02:16:40.062Z,25.23
2018-03-18T02:19:08.929Z,24.50
2018-03-18T02:21:37.016Z,24.80
2018-03-18T02:24:06.046Z,26.07
2018-03-18T02:26:34.137Z,25.70
2018-03-18T02:29:02.344Z,28.00
2018-03-18T02:31:30.452Z,28.90
2018-03-18T02:33:58.555Z,28.60
2018-03-18T02:36:26.695Z,28.00
2018-03-18T02:38:54.807Z,26.43
2018-03-18T02:41:22.908Z,27.20
2018-03-18T02:43:51.008Z,28.63
2018-03-18T02:59:14.138Z,27.73
2018-03-18T03:01:42.296Z,28.63
2018-03-18T03:04:10.416Z,31.07
2018-03-18T03:06:38.538Z,28.77
2018-03-18T03:09:06.656Z,34.10
2018-03-18T03:11:34.783Z,28.50
2018-03-18T03:14:03.013Z,33.03
2018-03-18T03:16:31.315Z,29.57
2018-03-18T03:18:59.441Z,32.67
2018-03-18T03:21:27.679Z,28.90
2018-03-18T03:23:55.839Z,30.20
2018-03-18T03:26:23.962Z,29.90
2018-03-18T03:28:52.077Z,31.20
2018-03-18T03:31:20.251Z,33.20
2018-03-18T03:33:49.100Z,30.83
2018-03-18T03:36:17.252Z,28.73
2018-03-18T03:38:51.130Z,36.13
2018-03-18T03:41:19.300Z,30.87
2018-03-18T03:43:48.172Z,33.10
2018-03-18T03:46:16.281Z,28.83
2018-03-18T03:48:44.398Z,30.03
2018-03-18T03:51:13.282Z,31.07
2018-03-18T03:53:41.426Z,30.17
2018-03-18T03:56:10.162Z,28.47
2018-03-18T03:58:38.296Z,31.90
2018-03-18T04:01:07.169Z,31.27
2018-03-18T04:03:35.385Z,30.40
2018-03-18T04:06:03.500Z,32.47
2018-03-18T04:08:31.702Z,29.23
2018-03-18T04:10:59.807Z,30.67
2018-03-18T04:13:27.923Z,34.93
2018-03-18T04:15:56.047Z,30.63
2018-03-18T04:18:24.165Z,32.60
2018-03-18T04:20:52.439Z,34.27
2018-03-18T04:23:20.584Z,31.80
2018-03-18T04:25:49.355Z,33.40
2018-03-18T04:28:17.451Z,27.80
2018-03-18T04:30:45.579Z,28.90
2018-03-18T04:33:13.681Z,29.80
2018-03-18T04:35:41.826Z,31.17
2018-03-18T04:38:10.055Z,29.23
2018-03-18T04:40:38.155Z,32.90
2018-03-18T04:43:06.274Z,32.40
2018-03-18T04:45:34.388Z,31.60
2018-03-18T04:48:02.597Z,30.60
2018-03-18T04:50:30.706Z,31.57
2018-03-18T04:52:58.807Z,28.23
2018-03-18T04:55:26.937Z,32.80
2018-03-18T04:57:55.114Z,27.27
2018-03-18T05:00:23.304Z,30.67
2018-03-18T05:02:51.462Z,33.70
2018-03-18T05:05:19.580Z,24.03
2018-03-18T05:07:47.684Z,27.27
2018-03-18T05:10:15.798Z,28.60
2018-03-18T05:12:43.911Z,26.17
2018-03-18T05:15:12.042Z,26.63
2018-03-18T05:17:40.244Z,24.97
2018-03-18T05:20:08.375Z,26.03
2018-03-18T05:22:36.552Z,27.37
2018-03-18T05:25:04.666Z,28.80
2018-03-18T05:27:32.936Z,29.57
2018-03-18T05:30:01.109Z,22.83
2018-03-18T05:32:29.234Z,26.73
2018-03-18T05:34:57.364Z,25.57
2018-03-18T05:37:25.475Z,26.23
2018-03-18T05:39:53.640Z,26.30
2018-03-18T05:42:21.749Z,23.17
2018-03-18T05:44:49.849Z,27.17
2018-03-18T05:47:17.977Z,26.13
2018-03-18T05:49:46.096Z,26.80
2018-03-18T05:52:14.198Z,25.50
2018-03-18T05:54:42.314Z,24.27
2018-03-18T05:57:10.432Z,22.97
2018-03-18T05:59:38.545Z,27.90
2018-03-18T06:02:06.647Z,23.10
2018-03-18T06:04:34.757Z,24.00
2018-03-18T06:07:02.865Z,28.10
2018-03-18T06:09:31.103Z,26.50
2018-03-18T06:11:59.657Z,23.03
2018-03-18T06:14:27.759Z,22.10
2018-03-18T06:16:57.277Z,24.63
2018-03-18T06:19:25.433Z,23.63
2018-03-18T06:21:53.655Z,21.93
2018-03-18T06:24:21.827Z,20.90
2018-03-18T06:26:51.020Z,21.10
2018-03-18T06:29:19.144Z,21.17
2018-03-18T06:31:47.261Z,18.97
2018-03-18T06:34:15.408Z,20.20
2018-03-18T06:36:43.529Z,24.17
2018-03-18T06:39:11.890Z,22.77
2018-03-18T06:41:40.020Z,26.07
2018-03-18T06:44:09.698Z,20.13
2018-03-18T06:46:37.800Z,23.17
2018-03-18T06:49:06.704Z,24.80
2018-03-18T06:51:34.807Z,22.03
2018-03-18T06:54:03.784Z,22.37
2018-03-18T06:56:31.954Z,20.77
2018-03-18T06:59:00.229Z,21.97
2018-03-18T07:01:28.458Z,23.40
2018-03-18T07:03:56.692Z,21.30
2018-03-18T07:06:24.818Z,22.97
2018-03-18T07:08:52.923Z,23.27
2018-03-18T07:11:21.170Z,20.17
2018-03-18T07:13:49.305Z,23.77
2018-03-18T07:16:18.187Z,20.67
2018-03-18T07:18:46.297Z,21.27
2018-03-18T07:21:15.354Z,26.83
2018-03-18T07:23:44.122Z,18.83
2018-03-18T07:26:12.281Z,19.17
2018-03-18T07:28:40.399Z,22.03
2018-03-18T07:31:08.525Z,20.37
2018-03-18T07:33:36.639Z,20.10
2018-03-18T07:36:04.828Z,25.57
2018-03-18T07:38:33.038Z,20.97
2018-03-18T07:41:01.372Z,20.50
2018-03-18T07:43:29.561Z,19.33
2018-03-18T07:45:57.697Z,20.60
2018-03-18T07:48:25.855Z,22.37
2018-03-18T07:50:54.465Z,18.03
2018-03-18T07:53:22.692Z,21.63
2018-03-18T07:55:51.035Z,18.20
2018-03-18T07:58:19.217Z,18.40
2018-03-18T08:00:47.365Z,17.87
2018-03-18T08:03:15.527Z,19.80
2018-03-18T08:05:43.645Z,19.00
2018-03-18T08:08:11.793Z,16.37
2018-03-18T08:10:41.699Z,18.77
2018-03-18T08:13:09.822Z,19.63
2018-03-18T08:15:37.952Z,19.87
2018-03-18T08:31:01.280Z,19.23
2018-03-18T08:33:29.390Z,22.90
2018-03-18T08:35:57.560Z,21.53
2018-03-18T08:38:26.552Z,20.13
2018-03-18T08:40:54.641Z,16.53
2018-03-18T08:43:22.830Z,18.23
2018-03-18T08:45:51.704Z,18.17
2018-03-18T08:48:19.819Z,19.93
2018-03-18T08:50:47.973Z,17.27
2018-03-18T08:53:16.060Z,17.23
2018-03-18T08:55:44.641Z,18.17
2018-03-18T08:58:12.801Z,16.53
2018-03-18T09:00:40.977Z,17.27
2018-03-18T09:03:09.091Z,17.20
2018-03-18T09:05:37.657Z,16.33
2018-03-18T09:08:05.861Z,20.10
2018-03-18T09:10:33.972Z,16.33
2018-03-18T09:13:05.629Z,15.80
2018-03-18T09:15:37.597Z,15.03
2018-03-18T09:18:06.458Z,17.70
2018-03-18T09:20:34.567Z,16.00
2018-03-18T09:23:02.715Z,16.30
2018-03-18T09:25:30.820Z,18.60
2018-03-18T09:27:58.958Z,14.90
2018-03-18T09:30:27.113Z,17.23
2018-03-18T09:32:55.220Z,18.67
2018-03-18T09:35:23.358Z,19.47
2018-03-18T09:37:51.549Z,19.20
2018-03-18T09:40:19.674Z,15.63
2018-03-18T09:42:47.792Z,17.20
2018-03-18T09:45:15.884Z,16.60
2018-03-18T09:47:44.012Z,16.10
2018-03-18T09:50:12.204Z,14.47
2018-03-18T09:52:40.442Z,16.63
2018-03-18T09:55:08.648Z,16.07
2018-03-18T09:57:36.828Z,15.57
2018-03-18T10:00:04.945Z,16.93
2018-03-18T10:02:37.514Z,13.77
2018-03-18T10:05:05.643Z,15.70
2018-03-18T10:07:33.779Z,13.30
2018-03-18T10:10:01.985Z,19.70
2018-03-18T10:12:30.121Z,17.37
2018-03-18T10:14:58.245Z,19.17
2018-03-18T10:17:26.417Z,16.67
2018-03-18T10:19:54.553Z,17.37
2018-03-18T10:22:22.653Z,16.93
2018-03-18T10:24:50.993Z,14.90
2018-03-18T10:27:19.385Z,16.73
2018-03-18T10:29:47.502Z,15.77
2018-03-18T10:32:15.621Z,16.00
2018-03-18T10:34:43.735Z,19.73
2018-03-18T10:37:11.845Z,18.10
2018-03-18T10:39:40.101Z,14.97
2018-03-18T10:42:08.258Z,17.67
2018-03-18T10:44:37.154Z,18.67
2018-03-18T10:47:05.910Z,16.50
2018-03-18T10:49:34.016Z,18.02
2018-03-18T10:52:02.254Z,21.40
2018-03-18T10:54:30.549Z,22.30
2018-03-18T10:56:58.731Z,15.53
2018-03-18T10:59:27.029Z,18.77
2018-03-18T11:01:55.303Z,17.30
2018-03-18T11:04:23.511Z,16.47
2018-03-18T11:06:51.765Z,18.27
2018-03-18T11:09:19.967Z,19.73
2018-03-18T11:11:48.260Z,17.50
2018-03-18T11:14:16.526Z,15.20
2018-03-18T11:16:44.751Z,17.67
2018-03-18T11:19:12.879Z,16.77
2018-03-18T11:21:40.994Z,17.37
2018-03-18T11:24:09.161Z,18.33
2018-03-18T11:26:41.223Z,18.60
2018-03-18T11:29:09.340Z,20.53
2018-03-18T11:31:37.485Z,17.57
2018-03-18T11:34:06.371Z,21.83
2018-03-18T11:36:34.480Z,19.00
2018-03-18T11:39:02.604Z,17.13
2018-03-18T11:41:30.690Z,17.10
2018-03-18T11:43:58.820Z,15.67
2018-03-18T11:46:26.923Z,20.13
2018-03-18T11:48:55.056Z,19.53
2018-03-18T11:51:23.927Z,20.10
2018-03-18T11:53:52.067Z,19.77
2018-03-18T11:56:20.201Z,17.40
2018-03-18T11:58:52.246Z,17.20
2018-03-18T12:01:20.310Z,19.37
2018-03-18T12:03:48.407Z,18.27
2018-03-18T12:06:16.583Z,18.00
2018-03-18T12:08:59.332Z,19.20
2018-03-18T12:11:27.624Z,18.07
2018-03-18T12:13:57.240Z,17.40
2018-03-18T12:16:25.354Z,17.93
2018-03-18T12:18:54.347Z,18.03
2018-03-18T12:21:22.670Z,20.73
2018-03-18T12:23:51.536Z,17.07
2018-03-18T12:26:19.630Z,18.50
2018-03-18T12:28:48.494Z,18.37
2018-03-18T12:31:16.608Z,18.47
2018-03-18T12:33:44.750Z,20.07
2018-03-18T12:36:12.882Z,19.00
2018-03-18T12:38:41.000Z,19.33
2018-03-18T12:41:09.895Z,14.83
2018-03-18T12:43:37.986Z,18.67
2018-03-18T12:46:06.108Z,17.03
2018-03-18T12:48:34.236Z,16.97
2018-03-18T12:51:02.448Z,16.20
2018-03-18T12:53:30.564Z,19.57
2018-03-18T12:55:58.711Z,18.23
2018-03-18T12:58:26.816Z,17.97
2018-03-18T13:00:54.947Z,18.20
2018-03-18T13:03:23.059Z,18.83
2018-03-18T13:05:51.993Z,17.77
2018-03-18T13:08:20.229Z,18.47
2018-03-18T13:10:48.468Z,16.77
2018-03-18T13:13:16.645Z,17.13
2018-03-18T13:15:44.787Z,18.90
2018-03-18T13:18:12.885Z,19.47
2018-03-18T13:20:41.043Z,19.37
2018-03-18T13:23:09.160Z,19.62
2018-03-18T13:25:37.280Z,17.77
2018-03-18T13:28:05.394Z,19.17
2018-03-18T13:30:33.534Z,15.67
2018-03-18T13:33:01.655Z,17.87
2018-03-18T13:35:29.793Z,21.43
2018-03-18T13:37:58.783Z,17.03
2018-03-18T13:40:26.881Z,20.43
2018-03-18T13:42:56.327Z,17.83
2018-03-18T13:45:24.513Z,19.40
2018-03-18T13:47:52.695Z,19.40
2018-03-18T13:50:20.738Z,18.47
2018-03-18T13:52:48.833Z,20.43
2018-03-18T13:55:16.965Z,15.67
2018-03-18T13:57:45.088Z,16.50
2018-03-18T14:00:13.208Z,18.17
2018-03-18T14:02:41.311Z,18.10
2018-03-18T14:05:09.420Z,15.43
2018-03-18T14:07:37.536Z,17.10
2018-03-18T14:10:05.657Z,18.63
2018-03-18T14:12:33.821Z,16.73
2018-03-18T14:15:01.901Z,18.93
2018-03-18T14:17:30.095Z,16.87
2018-03-18T14:19:58.223Z,19.97
2018-03-18T14:22:26.341Z,18.67
2018-03-18T14:24:54.455Z,20.37
2018-03-18T14:27:22.564Z,17.20
2018-03-18T14:29:50.685Z,18.37
2018-03-18T14:32:18.785Z,16.60
2018-03-18T14:34:46.933Z,17.33
2018-03-18T14:37:15.205Z,15.57
2018-03-18T14:39:43.389Z,22.60
2018-03-18T14:42:11.601Z,17.73
2018-03-18T14:44:39.736Z,16.67
2018-03-18T14:47:07.844Z,18.27
2018-03-18T14:49:36.499Z,20.20
2018-03-18T14:52:05.292Z,17.90
2018-03-18T14:54:33.421Z,18.60
2018-03-18T14:57:01.546Z,16.00
2018-03-18T14:59:29.662Z,18.00
2018-03-18T15:01:57.808Z,22.00
2018-03-18T15:04:25.908Z,18.80
2018-03-18T15:06:54.127Z,17.70
2018-03-18T15:09:22.333Z,18.93
2018-03-18T15:11:50.434Z,21.00
2018-03-18T15:14:19.318Z,16.60
2018-03-18T15:16:47.437Z,17.30
2018-03-18T15:19:15.544Z,17.33
2018-03-18T15:21:43.678Z,17.77
2018-03-18T15:24:11.798Z,18.17
2018-03-18T15:26:39.908Z,19.83
2018-03-18T15:29:08.038Z,16.50
2018-03-18T15:31:36.144Z,17.67
2018-03-18T15:34:04.260Z,15.23
2018-03-18T15:36:32.413Z,18.40
2018-03-18T15:39:00.548Z,19.10
2018-03-18T15:41:28.826Z,17.53
2018-03-18T15:43:57.366Z,18.93
2018-03-18T15:46:25.491Z,17.90
2018-03-18T15:48:54.454Z,19.67
2018-03-18T15:51:22.585Z,17.27
2018-03-18T15:53:50.730Z,16.03
2018-03-18T15:56:20.186Z,16.63
2018-03-18T15:58:48.380Z,19.70
2018-03-18T16:01:16.497Z,15.87
2018-03-18T16:03:44.661Z,15.57
2018-03-18T16:06:14.131Z,16.67
2018-03-18T16:08:42.309Z,14.20
2018-03-18T16:11:10.497Z,14.53
2018-03-18T16:13:38.714Z,15.03
2018-03-18T16:16:06.988Z,16.53
2018-03-18T16:18:35.163Z,17.23
2018-03-18T16:21:03.304Z,18.30
2018-03-18T16:23:31.455Z,17.27
2018-03-18T16:26:00.084Z,15.90
2018-03-18T16:28:28.268Z,17.97
2018-03-18T16:31:21.038Z,16.73
2018-03-18T16:33:49.162Z,17.77
2018-03-18T16:36:17.288Z,16.97
2018-03-18T16:38:45.487Z,16.70
2018-03-18T16:41:13.615Z,16.33
2018-03-18T16:43:41.790Z,17.77
2018-03-18T16:46:10.640Z,18.93
2018-03-18T16:48:38.770Z,16.10
2018-03-18T16:51:06.949Z,18.73
2018-03-18T16:53:35.113Z,14.17
2018-03-18T16:56:03.275Z,15.23
2018-03-18T16:58:31.384Z,16.93
2018-03-18T17:00:59.541Z,19.87
2018-03-18T17:03:27.689Z,16.37
2018-03-18T17:05:55.828Z,19.40
2018-03-18T17:08:23.921Z,17.20
2018-03-18T17:10:52.038Z,16.90
2018-03-18T17:13:20.149Z,19.33
2018-03-18T17:15:48.265Z,17.93
2018-03-18T17:18:16.505Z,18.83
2018-03-18T17:20:44.619Z,15.33
2018-03-18T17:23:12.735Z,19.90
2018-03-18T17:25:40.900Z,19.10
2018-03-18T17:28:09.863Z,14.67
2018-03-18T17:30:37.975Z,18.20
2018-03-18T17:33:06.161Z,15.07
2018-03-18T17:35:34.342Z,16.73
2018-03-18T17:38:02.549Z,13.83
2018-03-18T17:40:30.825Z,16.77
2018-03-18T17:42:59.075Z,16.13
2018-03-18T17:45:44.845Z,20.17
2018-03-18T17:48:30.779Z,15.23
2018-03-18T17:51:16.877Z,16.20
2018-03-18T17:54:02.583Z,15.67
2018-03-18T17:56:36.558Z,15.43
2018-03-18T17:59:04.695Z,16.57
2018-03-18T18:01:32.803Z,16.83
2018-03-18T18:04:00.918Z,16.93
2018-03-18T18:06:29.062Z,19.03
2018-03-18T18:08:57.162Z,16.27
2018-03-18T18:11:26.032Z,16.47
2018-03-18T18:13:54.142Z,16.70
2018-03-18T18:16:23.028Z,15.23
2018-03-18T18:18:51.761Z,19.77
2018-03-18T18:21:19.851Z,16.57
2018-03-18T18:23:48.057Z,16.47
2018-03-18T18:26:16.944Z,14.40
2018-03-18T18:28:45.068Z,14.70
2018-03-18T18:31:13.176Z,16.83
2018-03-18T18:33:41.285Z,15.57
2018-03-18T18:36:09.391Z,16.57
2018-03-18T18:38:37.529Z,17.90
2018-03-18T18:41:06.597Z,15.43
2018-03-18T18:43:34.723Z,13.70
2018-03-18T18:46:02.910Z,15.43
2018-03-18T18:48:31.041Z,16.50
2018-03-18T18:50:59.161Z,15.27
2018-03-18T18:53:27.253Z,15.40
2018-03-18T18:55:55.359Z,16.13
2018-03-18T18:58:23.455Z,13.80
2018-03-18T19:00:51.570Z,18.13
2018-03-18T19:03:19.674Z,18.07
2018-03-18T19:05:48.094Z,14.93
2018-03-18T19:08:16.212Z,16.47
2018-03-18T19:10:45.085Z,15.83
2018-03-18T19:13:13.204Z,14.50
2018-03-18T19:15:41.365Z,16.53
2018-03-18T19:18:09.526Z,15.03
2018-03-18T19:20:37.653Z,18.80
2018-03-18T19:23:05.767Z,18.90
2018-03-18T19:25:33.886Z,16.97
2018-03-18T19:28:02.073Z,17.47
2018-03-18T19:30:30.212Z,18.77
2018-03-18T19:32:58.325Z,18.67
2018-03-18T19:35:26.447Z,15.90
2018-03-18T19:37:54.569Z,14.50
2018-03-18T19:40:22.708Z,14.43
2018-03-18T19:42:50.806Z,15.83
2018-03-18T19:45:18.969Z,17.07
2018-03-18T19:47:47.098Z,18.50
2018-03-18T19:50:15.202Z,19.73
2018-03-18T19:52:43.326Z,20.37
2018-03-18T19:55:11.442Z,16.27
2018-03-18T19:57:40.001Z,16.37
2018-03-18T20:00:08.125Z,17.10
2018-03-18T20:02:36.998Z,17.27
2018-03-18T20:05:05.197Z,19.63
2018-03-18T20:07:33.313Z,20.30
2018-03-18T20:10:01.487Z,15.33
2018-03-18T20:12:30.971Z,15.23
2018-03-18T20:27:54.117Z,18.87
2018-03-18T20:30:22.229Z,18.37
2018-03-18T20:32:50.361Z,16.13
2018-03-18T20:35:19.300Z,18.00
2018-03-18T20:37:47.407Z,17.57
2018-03-18T20:40:15.569Z,17.87
2018-03-18T20:42:43.690Z,18.80
2018-03-18T20:45:11.928Z,17.63
2018-03-18T20:47:40.062Z,17.37
2018-03-18T20:50:08.960Z,18.33
2018-03-18T20:52:37.076Z,17.50
2018-03-18T20:55:05.210Z,18.03
2018-03-18T20:57:33.336Z,21.27
2018-03-18T21:00:01.454Z,18.03
2018-03-18T21:02:29.568Z,17.27
2018-03-18T21:04:57.684Z,18.57
2018-03-18T21:07:25.801Z,20.73
2018-03-18T21:09:53.920Z,23.03
2018-03-18T21:12:22.384Z,19.90
2018-03-18T21:14:51.262Z,21.60
2018-03-18T21:17:19.379Z,17.93
2018-03-18T21:19:48.109Z,15.87
2018-03-18T21:22:16.241Z,24.03
2018-03-18T21:24:44.372Z,18.50
2018-03-18T21:27:12.489Z,19.50
2018-03-18T21:29:40.747Z,21.13
2018-03-18T21:32:08.881Z,19.30
2018-03-18T21:34:39.930Z,17.60
2018-03-18T21:37:08.034Z,21.13
2018-03-18T21:39:36.163Z,17.63
2018-03-18T21:42:04.308Z,20.90
2018-03-18T21:44:32.420Z,17.50
2018-03-18T21:47:01.319Z,19.40
2018-03-18T21:49:29.441Z,19.20
2018-03-18T21:51:57.574Z,20.07
2018-03-18T21:54:25.679Z,20.30
2018-03-18T21:56:53.808Z,22.83
2018-03-18T21:59:22.708Z,19.77
2018-03-18T22:01:50.828Z,17.83
2018-03-18T22:04:19.048Z,18.20
2018-03-18T22:06:47.992Z,21.03
2018-03-18T22:09:16.129Z,21.90
2018-03-18T22:11:44.314Z,21.17
2018-03-18T22:14:12.560Z,18.33
2018-03-18T22:16:40.716Z,22.80
2018-03-18T22:19:08.876Z,21.30
2018-03-18T22:21:37.030Z,20.33
2018-03-18T22:24:05.136Z,18.33
2018-03-18T22:26:33.330Z,19.87
2018-03-18T22:29:02.220Z,19.77
2018-03-18T22:31:31.126Z,21.73
2018-03-18T22:33:59.268Z,18.50
2018-03-18T22:36:27.400Z,22.07
2018-03-18T22:38:55.518Z,20.17
2018-03-18T22:41:27.608Z,24.00
2018-03-18T22:43:55.796Z,24.50
2018-03-18T22:46:23.921Z,26.30
2018-03-18T22:48:52.072Z,23.20
2018-03-18T22:51:20.217Z,21.00
2018-03-18T22:53:48.321Z,20.70
2018-03-18T22:56:16.441Z,22.90
2018-03-18T22:58:44.601Z,20.90
2018-03-18T23:01:12.996Z,21.83
2018-03-18T23:03:46.133Z,24.93
2018-03-18T23:06:14.301Z,24.47
2018-03-18T23:08:42.421Z,26.17
2018-03-18T23:11:11.321Z,24.23
2018-03-18T23:13:47.165Z,21.80
2018-03-18T23:16:16.049Z,28.70
2018-03-18T23:18:44.233Z,23.83
2018-03-18T23:21:13.076Z,27.00
2018-03-18T23:23:44.015Z,26.50
2018-03-18T23:26:12.120Z,22.60
2018-03-18T23:28:40.301Z,27.67
2018-03-18T23:31:14.234Z,22.73
2018-03-18T23:33:42.690Z,21.87
2018-03-18T23:49:05.878Z,22.27
2018-03-18T23:51:34.016Z,22.73
2018-03-18T23:54:02.209Z,25.80
2018-03-18T23:56:30.355Z,23.67
2018-03-18T23:58:58.509Z,24.07
